sensor_id;sensor_type;location;lat;lon;timestamp;P1;durP1;ratioP1;P2;durP2;ratioP2
81298;SDS011;70766;53.170;18.160;2023-10-09T00:00:14;7.20;;;2.50;;
81298;SDS011;70766;53.170;18.160;2023-10-09T00:03:23;5.80;;;2.70;;
81298;SDS011;70766;53.170;18.160;2023-10-09T00:05:52;5.80;;;2.00;;
81298;SDS011;70766;53.170;18.160;2023-10-09T00:08:22;6.90;;;2.20;;
81298;SDS011;70766;53.170;18.160;2023-10-09T00:10:55;8.80;;;2.30;;
81298;SDS011;70766;53.170;18.160;2023-10-09T00:13:23;6.10;;;1.90;;
81298;SDS011;70766;53.170;18.160;2023-10-09T00:16:03;8.10;;;2.30;;
81298;SDS011;70766;53.170;18.160;2023-10-09T00:18:44;6.50;;;2.10;;
81298;SDS011;70766;53.170;18.160;2023-10-09T00:21:15;6.40;;;2.10;;
81298;SDS011;70766;53.170;18.160;2023-10-09T00:23:48;5.50;;;1.90;;
81298;SDS011;70766;53.170;18.160;2023-10-09T00:26:21;4.70;;;1.60;;
81298;SDS011;70766;53.170;18.160;2023-10-09T00:28:51;7.10;;;2.30;;
81298;SDS011;70766;53.170;18.160;2023-10-09T00:31:19;8.60;;;2.40;;
81298;SDS011;70766;53.170;18.160;2023-10-09T00:33:58;7.20;;;2.30;;
81298;SDS011;70766;53.170;18.160;2023-10-09T00:36:35;6.40;;;2.00;;
81298;SDS011;70766;53.170;18.160;2023-10-09T00:39:19;6.80;;;2.30;;
81298;SDS011;70766;53.170;18.160;2023-10-09T00:42:04;5.90;;;2.40;;
81298;SDS011;70766;53.170;18.160;2023-10-09T00:44:34;7.20;;;3.00;;
81298;SDS011;70766;53.170;18.160;2023-10-09T00:47:06;5.90;;;2.20;;
81298;SDS011;70766;53.170;18.160;2023-10-09T00:50:02;7.30;;;2.40;;
81298;SDS011;70766;53.170;18.160;2023-10-09T00:52:53;8.10;;;2.50;;
81298;SDS011;70766;53.170;18.160;2023-10-09T00:55:31;7.70;;;2.30;;
81298;SDS011;70766;53.170;18.160;2023-10-09T00:58:23;6.00;;;2.30;;
81298;SDS011;70766;53.170;18.160;2023-10-09T01:00:58;7.50;;;2.00;;
81298;SDS011;70766;53.170;18.160;2023-10-09T01:03:27;10.30;;;2.40;;
81298;SDS011;70766;53.170;18.160;2023-10-09T01:05:56;7.20;;;2.30;;
81298;SDS011;70766;53.170;18.160;2023-10-09T01:08:31;6.00;;;2.30;;
81298;SDS011;70766;53.170;18.160;2023-10-09T01:11:12;5.50;;;2.00;;
81298;SDS011;70766;53.170;18.160;2023-10-09T01:14:02;6.70;;;2.00;;
81298;SDS011;70766;53.170;18.160;2023-10-09T01:16:36;5.80;;;1.90;;
81298;SDS011;70766;53.170;18.160;2023-10-09T01:19:04;5.20;;;1.80;;
81298;SDS011;70766;53.170;18.160;2023-10-09T01:21:41;6.10;;;2.00;;
81298;SDS011;70766;53.170;18.160;2023-10-09T01:24:09;6.70;;;1.90;;
81298;SDS011;70766;53.170;18.160;2023-10-09T01:26:38;6.00;;;2.00;;
81298;SDS011;70766;53.170;18.160;2023-10-09T01:29:08;6.90;;;2.00;;
81298;SDS011;70766;53.170;18.160;2023-10-09T01:31:44;9.30;;;2.60;;
81298;SDS011;70766;53.170;18.160;2023-10-09T01:34:19;6.40;;;2.10;;
81298;SDS011;70766;53.170;18.160;2023-10-09T01:36:52;5.40;;;1.90;;
81298;SDS011;70766;53.170;18.160;2023-10-09T01:39:32;7.70;;;2.10;;
81298;SDS011;70766;53.170;18.160;2023-10-09T01:42:08;5.70;;;1.90;;
81298;SDS011;70766;53.170;18.160;2023-10-09T01:44:37;6.50;;;1.90;;
81298;SDS011;70766;53.170;18.160;2023-10-09T01:47:11;6.90;;;2.20;;
81298;SDS011;70766;53.170;18.160;2023-10-09T01:49:42;7.30;;;2.20;;
81298;SDS011;70766;53.170;18.160;2023-10-09T01:52:11;5.70;;;1.40;;
81298;SDS011;70766;53.170;18.160;2023-10-09T01:54:44;5.20;;;1.80;;
81298;SDS011;70766;53.170;18.160;2023-10-09T01:57:19;5.50;;;1.80;;
81298;SDS011;70766;53.170;18.160;2023-10-09T01:59:52;4.80;;;1.80;;
81298;SDS011;70766;53.170;18.160;2023-10-09T02:02:23;4.70;;;1.60;;
81298;SDS011;70766;53.170;18.160;2023-10-09T02:04:56;6.10;;;1.60;;
81298;SDS011;70766;53.170;18.160;2023-10-09T02:07:41;5.20;;;1.60;;
81298;SDS011;70766;53.170;18.160;2023-10-09T02:10:20;5.10;;;1.80;;
81298;SDS011;70766;53.170;18.160;2023-10-09T02:13:00;4.50;;;1.90;;
81298;SDS011;70766;53.170;18.160;2023-10-09T02:15:36;6.90;;;2.30;;
81298;SDS011;70766;53.170;18.160;2023-10-09T02:18:12;5.90;;;1.50;;
81298;SDS011;70766;53.170;18.160;2023-10-09T02:23:41;4.30;;;2.00;;
81298;SDS011;70766;53.170;18.160;2023-10-09T02:26:13;6.00;;;1.90;;
81298;SDS011;70766;53.170;18.160;2023-10-09T02:29:08;5.90;;;2.00;;
81298;SDS011;70766;53.170;18.160;2023-10-09T02:31:42;5.20;;;2.00;;
81298;SDS011;70766;53.170;18.160;2023-10-09T02:34:15;7.30;;;2.60;;
81298;SDS011;70766;53.170;18.160;2023-10-09T02:36:44;5.50;;;2.30;;
81298;SDS011;70766;53.170;18.160;2023-10-09T02:39:25;5.50;;;1.80;;
81298;SDS011;70766;53.170;18.160;2023-10-09T02:41:57;5.30;;;2.10;;
81298;SDS011;70766;53.170;18.160;2023-10-09T02:44:50;6.50;;;2.10;;
81298;SDS011;70766;53.170;18.160;2023-10-09T02:47:19;4.90;;;1.80;;
81298;SDS011;70766;53.170;18.160;2023-10-09T02:49:52;7.90;;;2.30;;
81298;SDS011;70766;53.170;18.160;2023-10-09T02:52:20;8.50;;;2.50;;
81298;SDS011;70766;53.170;18.160;2023-10-09T02:54:53;6.10;;;2.20;;
81298;SDS011;70766;53.170;18.160;2023-10-09T02:57:41;6.30;;;2.30;;
81298;SDS011;70766;53.170;18.160;2023-10-09T03:00:13;6.20;;;2.20;;
81298;SDS011;70766;53.170;18.160;2023-10-09T03:02:47;6.00;;;2.10;;
81298;SDS011;70766;53.170;18.160;2023-10-09T03:05:18;8.90;;;2.60;;
81298;SDS011;70766;53.170;18.160;2023-10-09T03:07:48;6.80;;;2.70;;
81298;SDS011;70766;53.170;18.160;2023-10-09T03:10:17;5.80;;;2.30;;
81298;SDS011;70766;53.170;18.160;2023-10-09T03:12:45;5.40;;;2.30;;
81298;SDS011;70766;53.170;18.160;2023-10-09T03:15:19;5.70;;;2.40;;
81298;SDS011;70766;53.170;18.160;2023-10-09T03:17:48;5.80;;;2.40;;
81298;SDS011;70766;53.170;18.160;2023-10-09T03:20:16;8.40;;;3.20;;
81298;SDS011;70766;53.170;18.160;2023-10-09T03:22:47;7.50;;;2.60;;
81298;SDS011;70766;53.170;18.160;2023-10-09T03:25:17;7.70;;;2.60;;
81298;SDS011;70766;53.170;18.160;2023-10-09T03:27:46;8.40;;;2.50;;
81298;SDS011;70766;53.170;18.160;2023-10-09T03:30:15;7.60;;;2.60;;
81298;SDS011;70766;53.170;18.160;2023-10-09T03:32:51;6.80;;;2.70;;
81298;SDS011;70766;53.170;18.160;2023-10-09T03:35:20;6.40;;;2.00;;
81298;SDS011;70766;53.170;18.160;2023-10-09T03:37:53;9.90;;;2.80;;
81298;SDS011;70766;53.170;18.160;2023-10-09T03:40:25;7.50;;;2.50;;
81298;SDS011;70766;53.170;18.160;2023-10-09T03:42:53;7.10;;;2.60;;
81298;SDS011;70766;53.170;18.160;2023-10-09T03:45:21;6.70;;;2.10;;
81298;SDS011;70766;53.170;18.160;2023-10-09T03:47:56;5.80;;;2.10;;
81298;SDS011;70766;53.170;18.160;2023-10-09T03:50:37;7.80;;;2.70;;
81298;SDS011;70766;53.170;18.160;2023-10-09T03:53:05;7.80;;;2.60;;
81298;SDS011;70766;53.170;18.160;2023-10-09T03:55:35;7.90;;;2.90;;
81298;SDS011;70766;53.170;18.160;2023-10-09T03:58:08;9.20;;;2.60;;
81298;SDS011;70766;53.170;18.160;2023-10-09T04:00:39;6.40;;;2.40;;
81298;SDS011;70766;53.170;18.160;2023-10-09T04:03:15;7.30;;;2.90;;
81298;SDS011;70766;53.170;18.160;2023-10-09T04:05:44;7.80;;;3.10;;
81298;SDS011;70766;53.170;18.160;2023-10-09T04:08:13;8.00;;;3.20;;
81298;SDS011;70766;53.170;18.160;2023-10-09T04:10:57;6.30;;;2.90;;
81298;SDS011;70766;53.170;18.160;2023-10-09T04:13:32;8.70;;;3.30;;
81298;SDS011;70766;53.170;18.160;2023-10-09T04:16:03;13.00;;;4.10;;
81298;SDS011;70766;53.170;18.160;2023-10-09T04:18:40;8.20;;;3.40;;
81298;SDS011;70766;53.170;18.160;2023-10-09T04:21:13;8.20;;;2.80;;
81298;SDS011;70766;53.170;18.160;2023-10-09T04:23:47;7.50;;;2.80;;
81298;SDS011;70766;53.170;18.160;2023-10-09T04:26:27;6.30;;;2.30;;
81298;SDS011;70766;53.170;18.160;2023-10-09T04:28:57;6.00;;;2.30;;
81298;SDS011;70766;53.170;18.160;2023-10-09T04:31:25;8.50;;;2.40;;
81298;SDS011;70766;53.170;18.160;2023-10-09T04:34:00;9.10;;;2.30;;
81298;SDS011;70766;53.170;18.160;2023-10-09T04:36:49;6.90;;;2.40;;
81298;SDS011;70766;53.170;18.160;2023-10-09T04:39:19;6.40;;;2.30;;
81298;SDS011;70766;53.170;18.160;2023-10-09T04:41:59;6.10;;;2.40;;
81298;SDS011;70766;53.170;18.160;2023-10-09T04:44:47;5.60;;;2.40;;
81298;SDS011;70766;53.170;18.160;2023-10-09T04:47:32;9.60;;;3.70;;
81298;SDS011;70766;53.170;18.160;2023-10-09T04:50:09;6.90;;;2.10;;
81298;SDS011;70766;53.170;18.160;2023-10-09T04:52:57;7.20;;;2.20;;
81298;SDS011;70766;53.170;18.160;2023-10-09T04:55:41;8.20;;;2.80;;
81298;SDS011;70766;53.170;18.160;2023-10-09T04:58:22;8.80;;;3.00;;
81298;SDS011;70766;53.170;18.160;2023-10-09T05:00:56;6.80;;;3.20;;
81298;SDS011;70766;53.170;18.160;2023-10-09T05:03:26;8.70;;;3.60;;
81298;SDS011;70766;53.170;18.160;2023-10-09T05:05:57;9.00;;;3.60;;
81298;SDS011;70766;53.170;18.160;2023-10-09T05:08:48;7.50;;;3.20;;
81298;SDS011;70766;53.170;18.160;2023-10-09T05:11:16;4.80;;;2.40;;
81298;SDS011;70766;53.170;18.160;2023-10-09T05:14:21;6.10;;;2.30;;
81298;SDS011;70766;53.170;18.160;2023-10-09T05:16:55;8.50;;;2.70;;
81298;SDS011;70766;53.170;18.160;2023-10-09T05:19:23;5.00;;;2.10;;
81298;SDS011;70766;53.170;18.160;2023-10-09T05:22:10;10.70;;;3.60;;
81298;SDS011;70766;53.170;18.160;2023-10-09T05:25:16;12.00;;;4.10;;
81298;SDS011;70766;53.170;18.160;2023-10-09T05:28:04;16.00;;;5.40;;
81298;SDS011;70766;53.170;18.160;2023-10-09T05:30:54;17.90;;;5.40;;
81298;SDS011;70766;53.170;18.160;2023-10-09T05:33:58;14.90;;;5.10;;
81298;SDS011;70766;53.170;18.160;2023-10-09T05:36:29;16.80;;;4.90;;
81298;SDS011;70766;53.170;18.160;2023-10-09T05:38:57;13.40;;;5.20;;
81298;SDS011;70766;53.170;18.160;2023-10-09T05:41:44;12.70;;;4.00;;
81298;SDS011;70766;53.170;18.160;2023-10-09T05:44:28;15.70;;;4.70;;
81298;SDS011;70766;53.170;18.160;2023-10-09T05:47:14;12.30;;;3.60;;
81298;SDS011;70766;53.170;18.160;2023-10-09T05:50:01;10.20;;;2.40;;
81298;SDS011;70766;53.170;18.160;2023-10-09T05:52:41;6.90;;;2.40;;
81298;SDS011;70766;53.170;18.160;2023-10-09T05:55:09;6.00;;;2.80;;
81298;SDS011;70766;53.170;18.160;2023-10-09T05:57:55;9.60;;;2.80;;
81298;SDS011;70766;53.170;18.160;2023-10-09T06:00:42;8.30;;;3.30;;
81298;SDS011;70766;53.170;18.160;2023-10-09T06:03:29;9.90;;;3.50;;
81298;SDS011;70766;53.170;18.160;2023-10-09T06:06:17;13.20;;;4.20;;
81298;SDS011;70766;53.170;18.160;2023-10-09T06:09:03;10.50;;;3.70;;
81298;SDS011;70766;53.170;18.160;2023-10-09T06:11:42;8.10;;;3.50;;
81298;SDS011;70766;53.170;18.160;2023-10-09T06:14:22;6.30;;;2.40;;
81298;SDS011;70766;53.170;18.160;2023-10-09T06:16:58;9.50;;;3.20;;
81298;SDS011;70766;53.170;18.160;2023-10-09T06:19:43;9.30;;;3.30;;
81298;SDS011;70766;53.170;18.160;2023-10-09T06:22:11;7.20;;;3.30;;
81298;SDS011;70766;53.170;18.160;2023-10-09T06:24:39;7.50;;;3.10;;
81298;SDS011;70766;53.170;18.160;2023-10-09T06:27:21;6.80;;;2.70;;
81298;SDS011;70766;53.170;18.160;2023-10-09T06:29:59;16.80;;;4.00;;
81298;SDS011;70766;53.170;18.160;2023-10-09T06:32:51;8.10;;;3.00;;
81298;SDS011;70766;53.170;18.160;2023-10-09T06:35:46;8.50;;;3.20;;
81298;SDS011;70766;53.170;18.160;2023-10-09T06:38:23;8.60;;;3.40;;
81298;SDS011;70766;53.170;18.160;2023-10-09T06:41:01;8.80;;;3.60;;
81298;SDS011;70766;53.170;18.160;2023-10-09T06:43:32;11.20;;;4.10;;
81298;SDS011;70766;53.170;18.160;2023-10-09T06:46:04;9.30;;;4.10;;
81298;SDS011;70766;53.170;18.160;2023-10-09T06:49:05;9.50;;;3.80;;
81298;SDS011;70766;53.170;18.160;2023-10-09T06:51:53;8.00;;;3.50;;
81298;SDS011;70766;53.170;18.160;2023-10-09T06:54:23;11.60;;;4.10;;
81298;SDS011;70766;53.170;18.160;2023-10-09T06:56:55;11.30;;;3.90;;
81298;SDS011;70766;53.170;18.160;2023-10-09T06:59:23;10.70;;;4.60;;
81298;SDS011;70766;53.170;18.160;2023-10-09T07:01:52;11.20;;;4.00;;
81298;SDS011;70766;53.170;18.160;2023-10-09T07:04:39;15.00;;;4.80;;
81298;SDS011;70766;53.170;18.160;2023-10-09T07:07:07;11.50;;;4.30;;
81298;SDS011;70766;53.170;18.160;2023-10-09T07:09:38;15.20;;;4.70;;
81298;SDS011;70766;53.170;18.160;2023-10-09T07:12:10;31.40;;;8.30;;
81298;SDS011;70766;53.170;18.160;2023-10-09T07:14:49;14.80;;;5.50;;
81298;SDS011;70766;53.170;18.160;2023-10-09T07:17:17;12.30;;;4.70;;
81298;SDS011;70766;53.170;18.160;2023-10-09T07:20:12;13.00;;;5.40;;
81298;SDS011;70766;53.170;18.160;2023-10-09T07:22:42;13.10;;;5.40;;
81298;SDS011;70766;53.170;18.160;2023-10-09T07:25:42;13.90;;;4.60;;
81298;SDS011;70766;53.170;18.160;2023-10-09T07:28:23;15.40;;;5.00;;
81298;SDS011;70766;53.170;18.160;2023-10-09T07:31:04;17.80;;;5.70;;
81298;SDS011;70766;53.170;18.160;2023-10-09T07:33:39;12.00;;;4.70;;
81298;SDS011;70766;53.170;18.160;2023-10-09T07:36:25;15.50;;;4.30;;
81298;SDS011;70766;53.170;18.160;2023-10-09T07:39:03;13.10;;;4.00;;
81298;SDS011;70766;53.170;18.160;2023-10-09T07:41:41;11.40;;;5.00;;
81298;SDS011;70766;53.170;18.160;2023-10-09T07:44:23;10.10;;;4.20;;
81298;SDS011;70766;53.170;18.160;2023-10-09T07:47:07;11.70;;;4.30;;
81298;SDS011;70766;53.170;18.160;2023-10-09T07:49:45;8.80;;;3.30;;
81298;SDS011;70766;53.170;18.160;2023-10-09T07:52:22;11.20;;;4.10;;
81298;SDS011;70766;53.170;18.160;2023-10-09T07:54:50;7.70;;;3.20;;
81298;SDS011;70766;53.170;18.160;2023-10-09T07:57:21;10.20;;;4.50;;
81298;SDS011;70766;53.170;18.160;2023-10-09T07:59:57;10.50;;;4.10;;
81298;SDS011;70766;53.170;18.160;2023-10-09T08:02:40;12.90;;;4.30;;
81298;SDS011;70766;53.170;18.160;2023-10-09T08:05:09;12.60;;;5.00;;
81298;SDS011;70766;53.170;18.160;2023-10-09T08:07:47;16.50;;;5.50;;
81298;SDS011;70766;53.170;18.160;2023-10-09T08:10:38;17.00;;;5.70;;
81298;SDS011;70766;53.170;18.160;2023-10-09T08:13:25;13.90;;;5.20;;
81298;SDS011;70766;53.170;18.160;2023-10-09T08:16:12;13.20;;;5.20;;
81298;SDS011;70766;53.170;18.160;2023-10-09T08:18:48;14.30;;;5.50;;
81298;SDS011;70766;53.170;18.160;2023-10-09T08:21:19;11.60;;;5.30;;
81298;SDS011;70766;53.170;18.160;2023-10-09T08:24:10;13.30;;;5.40;;
81298;SDS011;70766;53.170;18.160;2023-10-09T08:26:58;14.70;;;4.90;;
81298;SDS011;70766;53.170;18.160;2023-10-09T08:29:45;15.10;;;5.20;;
81298;SDS011;70766;53.170;18.160;2023-10-09T08:32:17;15.70;;;5.40;;
81298;SDS011;70766;53.170;18.160;2023-10-09T08:35:09;11.60;;;5.00;;
81298;SDS011;70766;53.170;18.160;2023-10-09T08:37:57;12.50;;;5.00;;
81298;SDS011;70766;53.170;18.160;2023-10-09T08:40:32;11.60;;;5.20;;
81298;SDS011;70766;53.170;18.160;2023-10-09T08:43:14;16.10;;;5.20;;
81298;SDS011;70766;53.170;18.160;2023-10-09T08:45:47;12.70;;;4.60;;
81298;SDS011;70766;53.170;18.160;2023-10-09T08:48:20;9.60;;;4.70;;
81298;SDS011;70766;53.170;18.160;2023-10-09T08:50:55;14.70;;;5.70;;
81298;SDS011;70766;53.170;18.160;2023-10-09T08:53:24;14.20;;;5.30;;
81298;SDS011;70766;53.170;18.160;2023-10-09T08:55:52;15.30;;;6.50;;
81298;SDS011;70766;53.170;18.160;2023-10-09T08:58:20;15.30;;;5.90;;
81298;SDS011;70766;53.170;18.160;2023-10-09T09:00:52;20.40;;;6.90;;
81298;SDS011;70766;53.170;18.160;2023-10-09T09:03:23;18.80;;;6.40;;
81298;SDS011;70766;53.170;18.160;2023-10-09T09:05:58;16.70;;;6.00;;
81298;SDS011;70766;53.170;18.160;2023-10-09T09:08:31;15.50;;;5.80;;
81298;SDS011;70766;53.170;18.160;2023-10-09T09:11:04;14.40;;;5.50;;
81298;SDS011;70766;53.170;18.160;2023-10-09T09:16:26;14.30;;;5.50;;
81298;SDS011;70766;53.170;18.160;2023-10-09T09:18:59;12.50;;;4.50;;
81298;SDS011;70766;53.170;18.160;2023-10-09T09:21:33;10.50;;;4.40;;
81298;SDS011;70766;53.170;18.160;2023-10-09T09:24:09;12.20;;;4.80;;
81298;SDS011;70766;53.170;18.160;2023-10-09T09:27:03;13.10;;;4.20;;
81298;SDS011;70766;53.170;18.160;2023-10-09T09:29:54;9.00;;;4.00;;
81298;SDS011;70766;53.170;18.160;2023-10-09T09:32:29;9.20;;;4.00;;
81298;SDS011;70766;53.170;18.160;2023-10-09T09:35:11;8.90;;;3.70;;
81298;SDS011;70766;53.170;18.160;2023-10-09T09:37:52;7.60;;;3.50;;
81298;SDS011;70766;53.170;18.160;2023-10-09T09:40:22;7.40;;;3.60;;
81298;SDS011;70766;53.170;18.160;2023-10-09T09:43:02;7.90;;;4.00;;
81298;SDS011;70766;53.170;18.160;2023-10-09T09:45:38;7.80;;;3.50;;
81298;SDS011;70766;53.170;18.160;2023-10-09T09:48:13;11.90;;;4.40;;
81298;SDS011;70766;53.170;18.160;2023-10-09T09:50:44;10.10;;;4.20;;
81298;SDS011;70766;53.170;18.160;2023-10-09T09:53:12;9.70;;;4.00;;
81298;SDS011;70766;53.170;18.160;2023-10-09T09:55:46;19.60;;;10.40;;
81298;SDS011;70766;53.170;18.160;2023-10-09T09:58:26;13.20;;;4.40;;
81298;SDS011;70766;53.170;18.160;2023-10-09T10:01:10;11.70;;;4.20;;
81298;SDS011;70766;53.170;18.160;2023-10-09T10:03:48;11.70;;;6.30;;
81298;SDS011;70766;53.170;18.160;2023-10-09T10:06:20;10.90;;;5.90;;
81298;SDS011;70766;53.170;18.160;2023-10-09T10:08:54;12.30;;;5.00;;
81298;SDS011;70766;53.170;18.160;2023-10-09T10:14:12;9.40;;;4.20;;
81298;SDS011;70766;53.170;18.160;2023-10-09T10:20:03;12.70;;;4.70;;
81298;SDS011;70766;53.170;18.160;2023-10-09T10:22:29;9.60;;;4.50;;
81298;SDS011;70766;53.170;18.160;2023-10-09T10:25:05;12.90;;;4.30;;
81298;SDS011;70766;53.170;18.160;2023-10-09T10:27:37;8.80;;;4.10;;
81298;SDS011;70766;53.170;18.160;2023-10-09T10:30:29;11.00;;;4.60;;
81298;SDS011;70766;53.170;18.160;2023-10-09T10:33:02;15.30;;;4.10;;
81298;SDS011;70766;53.170;18.160;2023-10-09T10:35:45;12.90;;;3.50;;
81298;SDS011;70766;53.170;18.160;2023-10-09T10:38:24;8.90;;;3.90;;
81298;SDS011;70766;53.170;18.160;2023-10-09T10:41:09;12.20;;;4.90;;
81298;SDS011;70766;53.170;18.160;2023-10-09T10:43:45;10.20;;;4.10;;
81298;SDS011;70766;53.170;18.160;2023-10-09T10:46:21;9.50;;;3.70;;
81298;SDS011;70766;53.170;18.160;2023-10-09T10:49:06;11.10;;;4.50;;
81298;SDS011;70766;53.170;18.160;2023-10-09T10:51:47;7.20;;;3.30;;
81298;SDS011;70766;53.170;18.160;2023-10-09T10:54:29;9.60;;;3.90;;
81298;SDS011;70766;53.170;18.160;2023-10-09T10:57:00;10.30;;;4.10;;
81298;SDS011;70766;53.170;18.160;2023-10-09T10:59:32;9.40;;;4.00;;
81298;SDS011;70766;53.170;18.160;2023-10-09T11:02:09;16.60;;;5.30;;
81298;SDS011;70766;53.170;18.160;2023-10-09T11:04:39;10.30;;;3.90;;
81298;SDS011;70766;53.170;18.160;2023-10-09T11:07:10;8.70;;;3.60;;
81298;SDS011;70766;53.170;18.160;2023-10-09T11:09:56;8.90;;;3.70;;
81298;SDS011;70766;53.170;18.160;2023-10-09T11:12:28;8.40;;;3.70;;
81298;SDS011;70766;53.170;18.160;2023-10-09T11:15:08;13.10;;;4.10;;
81298;SDS011;70766;53.170;18.160;2023-10-09T11:20:50;5.80;;;3.20;;
81298;SDS011;70766;53.170;18.160;2023-10-09T11:23:32;6.40;;;3.10;;
81298;SDS011;70766;53.170;18.160;2023-10-09T11:26:02;7.80;;;3.20;;
81298;SDS011;70766;53.170;18.160;2023-10-09T11:31:41;7.80;;;2.90;;
81298;SDS011;70766;53.170;18.160;2023-10-09T11:34:25;6.90;;;3.20;;
81298;SDS011;70766;53.170;18.160;2023-10-09T11:36:59;6.90;;;2.70;;
81298;SDS011;70766;53.170;18.160;2023-10-09T11:39:39;10.50;;;3.80;;
81298;SDS011;70766;53.170;18.160;2023-10-09T11:42:23;10.10;;;4.10;;
81298;SDS011;70766;53.170;18.160;2023-10-09T11:45:07;9.30;;;4.70;;
81298;SDS011;70766;53.170;18.160;2023-10-09T11:47:52;12.50;;;4.70;;
81298;SDS011;70766;53.170;18.160;2023-10-09T11:53:41;9.00;;;4.40;;
81298;SDS011;70766;53.170;18.160;2023-10-09T11:56:18;11.70;;;4.80;;
81298;SDS011;70766;53.170;18.160;2023-10-09T11:58:48;11.30;;;5.10;;
81298;SDS011;70766;53.170;18.160;2023-10-09T12:01:19;10.80;;;4.40;;
81298;SDS011;70766;53.170;18.160;2023-10-09T12:03:49;10.80;;;4.80;;
81298;SDS011;70766;53.170;18.160;2023-10-09T12:06:20;12.30;;;4.70;;
81298;SDS011;70766;53.170;18.160;2023-10-09T12:08:52;9.10;;;4.30;;
81298;SDS011;70766;53.170;18.160;2023-10-09T12:11:21;8.10;;;3.30;;
81298;SDS011;70766;53.170;18.160;2023-10-09T12:13:59;8.10;;;3.70;;
81298;SDS011;70766;53.170;18.160;2023-10-09T12:16:29;6.60;;;3.60;;
81298;SDS011;70766;53.170;18.160;2023-10-09T12:19:01;9.20;;;4.70;;
81298;SDS011;70766;53.170;18.160;2023-10-09T12:21:30;8.10;;;3.30;;
81298;SDS011;70766;53.170;18.160;2023-10-09T12:23:58;8.00;;;2.90;;
81298;SDS011;70766;53.170;18.160;2023-10-09T12:26:40;5.60;;;2.30;;
81298;SDS011;70766;53.170;18.160;2023-10-09T12:29:10;5.40;;;2.80;;
81298;SDS011;70766;53.170;18.160;2023-10-09T12:31:39;8.30;;;2.90;;
81298;SDS011;70766;53.170;18.160;2023-10-09T12:34:08;6.10;;;2.40;;
81298;SDS011;70766;53.170;18.160;2023-10-09T12:36:36;5.10;;;2.00;;
81298;SDS011;70766;53.170;18.160;2023-10-09T12:39:05;4.60;;;2.30;;
81298;SDS011;70766;53.170;18.160;2023-10-09T12:41:35;6.70;;;3.00;;
81298;SDS011;70766;53.170;18.160;2023-10-09T12:44:09;6.40;;;3.10;;
81298;SDS011;70766;53.170;18.160;2023-10-09T12:46:43;5.60;;;2.40;;
81298;SDS011;70766;53.170;18.160;2023-10-09T12:49:21;6.70;;;2.40;;
81298;SDS011;70766;53.170;18.160;2023-10-09T12:51:56;4.40;;;2.50;;
81298;SDS011;70766;53.170;18.160;2023-10-09T12:54:25;5.10;;;2.10;;
81298;SDS011;70766;53.170;18.160;2023-10-09T12:56:58;6.00;;;2.70;;
81298;SDS011;70766;53.170;18.160;2023-10-09T12:59:27;5.20;;;2.00;;
81298;SDS011;70766;53.170;18.160;2023-10-09T13:01:55;4.70;;;2.30;;
81298;SDS011;70766;53.170;18.160;2023-10-09T13:04:26;5.10;;;2.40;;
81298;SDS011;70766;53.170;18.160;2023-10-09T13:07:00;4.80;;;2.50;;
81298;SDS011;70766;53.170;18.160;2023-10-09T13:09:32;5.40;;;2.40;;
81298;SDS011;70766;53.170;18.160;2023-10-09T13:12:04;3.90;;;1.90;;
81298;SDS011;70766;53.170;18.160;2023-10-09T13:14:32;4.00;;;1.40;;
81298;SDS011;70766;53.170;18.160;2023-10-09T13:17:02;4.30;;;2.00;;
81298;SDS011;70766;53.170;18.160;2023-10-09T13:19:37;3.50;;;1.80;;
81298;SDS011;70766;53.170;18.160;2023-10-09T13:22:06;3.00;;;1.30;;
81298;SDS011;70766;53.170;18.160;2023-10-09T13:24:41;4.60;;;2.10;;
81298;SDS011;70766;53.170;18.160;2023-10-09T13:27:09;6.10;;;2.10;;
81298;SDS011;70766;53.170;18.160;2023-10-09T13:29:38;3.90;;;1.80;;
81298;SDS011;70766;53.170;18.160;2023-10-09T13:32:09;4.10;;;2.10;;
81298;SDS011;70766;53.170;18.160;2023-10-09T13:34:44;4.00;;;2.10;;
81298;SDS011;70766;53.170;18.160;2023-10-09T13:37:12;3.70;;;1.70;;
81298;SDS011;70766;53.170;18.160;2023-10-09T13:39:49;4.80;;;1.70;;
81298;SDS011;70766;53.170;18.160;2023-10-09T13:42:21;4.30;;;2.00;;
81298;SDS011;70766;53.170;18.160;2023-10-09T13:44:53;4.10;;;1.60;;
81298;SDS011;70766;53.170;18.160;2023-10-09T13:47:24;3.10;;;1.60;;
81298;SDS011;70766;53.170;18.160;2023-10-09T13:49:59;3.10;;;1.40;;
81298;SDS011;70766;53.170;18.160;2023-10-09T13:52:28;4.00;;;1.60;;
81298;SDS011;70766;53.170;18.160;2023-10-09T13:54:58;3.40;;;1.40;;
81298;SDS011;70766;53.170;18.160;2023-10-09T13:57:43;4.60;;;1.30;;
81298;SDS011;70766;53.170;18.160;2023-10-09T14:00:13;5.00;;;2.20;;
81298;SDS011;70766;53.170;18.160;2023-10-09T14:03:00;3.60;;;1.30;;
81298;SDS011;70766;53.170;18.160;2023-10-09T14:05:31;4.20;;;1.50;;
81298;SDS011;70766;53.170;18.160;2023-10-09T14:08:01;3.80;;;1.50;;
81298;SDS011;70766;53.170;18.160;2023-10-09T14:10:32;2.70;;;1.00;;
81298;SDS011;70766;53.170;18.160;2023-10-09T14:13:00;3.60;;;1.00;;
81298;SDS011;70766;53.170;18.160;2023-10-09T14:15:28;4.30;;;1.50;;
81298;SDS011;70766;53.170;18.160;2023-10-09T14:17:56;2.70;;;1.40;;
81298;SDS011;70766;53.170;18.160;2023-10-09T14:20:25;2.60;;;1.10;;
81298;SDS011;70766;53.170;18.160;2023-10-09T14:23:02;2.90;;;1.20;;
81298;SDS011;70766;53.170;18.160;2023-10-09T14:25:35;3.20;;;1.30;;
81298;SDS011;70766;53.170;18.160;2023-10-09T14:28:08;2.70;;;1.30;;
81298;SDS011;70766;53.170;18.160;2023-10-09T14:30:37;3.60;;;1.60;;
81298;SDS011;70766;53.170;18.160;2023-10-09T14:33:12;5.50;;;1.90;;
81298;SDS011;70766;53.170;18.160;2023-10-09T14:35:42;3.50;;;1.90;;
81298;SDS011;70766;53.170;18.160;2023-10-09T14:38:12;5.30;;;1.80;;
81298;SDS011;70766;53.170;18.160;2023-10-09T14:40:41;4.50;;;2.00;;
81298;SDS011;70766;53.170;18.160;2023-10-09T14:43:10;5.60;;;1.90;;
81298;SDS011;70766;53.170;18.160;2023-10-09T14:45:49;3.30;;;1.30;;
81298;SDS011;70766;53.170;18.160;2023-10-09T14:48:21;4.80;;;1.90;;
81298;SDS011;70766;53.170;18.160;2023-10-09T14:50:56;5.10;;;2.10;;
81298;SDS011;70766;53.170;18.160;2023-10-09T14:53:33;3.80;;;1.50;;
81298;SDS011;70766;53.170;18.160;2023-10-09T14:56:02;4.70;;;1.80;;
81298;SDS011;70766;53.170;18.160;2023-10-09T14:58:37;2.80;;;1.30;;
81298;SDS011;70766;53.170;18.160;2023-10-09T15:01:07;3.90;;;1.60;;
81298;SDS011;70766;53.170;18.160;2023-10-09T15:03:43;3.10;;;1.50;;
81298;SDS011;70766;53.170;18.160;2023-10-09T15:06:11;4.40;;;1.70;;
81298;SDS011;70766;53.170;18.160;2023-10-09T15:08:40;5.10;;;1.70;;
81298;SDS011;70766;53.170;18.160;2023-10-09T15:11:08;20.50;;;13.20;;
81298;SDS011;70766;53.170;18.160;2023-10-09T15:13:36;17.50;;;12.20;;
81298;SDS011;70766;53.170;18.160;2023-10-09T15:16:07;11.70;;;7.20;;
81298;SDS011;70766;53.170;18.160;2023-10-09T15:18:35;8.00;;;3.50;;
81298;SDS011;70766;53.170;18.160;2023-10-09T15:21:05;7.50;;;4.80;;
81298;SDS011;70766;53.170;18.160;2023-10-09T15:23:34;7.50;;;3.80;;
81298;SDS011;70766;53.170;18.160;2023-10-09T15:26:04;5.30;;;2.20;;
81298;SDS011;70766;53.170;18.160;2023-10-09T15:28:35;5.20;;;2.50;;
81298;SDS011;70766;53.170;18.160;2023-10-09T15:31:07;7.90;;;2.90;;
81298;SDS011;70766;53.170;18.160;2023-10-09T15:33:40;5.70;;;2.80;;
81298;SDS011;70766;53.170;18.160;2023-10-09T15:36:12;7.00;;;4.00;;
81298;SDS011;70766;53.170;18.160;2023-10-09T15:38:42;8.70;;;4.90;;
81298;SDS011;70766;53.170;18.160;2023-10-09T15:41:10;6.20;;;2.60;;